createdAt,value
2022-08-07T00:00:28.005Z,100.00
2022-08-07T00:02:56.013Z,100.00
2022-08-07T00:05:24.060Z,100.00
2022-08-07T00:08:00.290Z,100.00
2022-08-07T00:10:31.015Z,100.00
2022-08-07T00:13:03.177Z,100.00
2022-08-07T00:15:50.986Z,100.00
2022-08-07T00:18:24.161Z,100.00
2022-08-07T00:20:53.422Z,100.00
2022-08-07T00:23:22.067Z,100.00
2022-08-07T00:25:52.080Z,100.00
2022-08-07T00:28:31.532Z,100.00
2022-08-07T00:31:05.892Z,100.00
2022-08-07T00:33:34.540Z,100.00
2022-08-07T00:36:03.595Z,100.00
2022-08-07T00:38:33.218Z,100.00
2022-08-07T00:41:01.555Z,100.00
2022-08-07T00:44:01.339Z,100.00
2022-08-07T00:46:18.106Z,100.00
2022-08-07T00:48:45.615Z,100.00
2022-08-07T00:51:17.767Z,100.00
2022-08-07T00:53:55.013Z,100.00
2022-08-07T00:56:30.242Z,100.00
2022-08-07T00:59:01.796Z,100.00
2022-08-07T01:01:43.988Z,100.00
2022-08-07T01:04:12.223Z,100.00
2022-08-07T01:06:52.489Z,100.00
2022-08-07T01:10:03.972Z,100.00
2022-08-07T01:12:30.091Z,100.00
2022-08-07T01:15:01.401Z,100.00
2022-08-07T01:17:33.507Z,100.00
2022-08-07T01:20:06.570Z,100.00
2022-08-07T01:22:37.789Z,100.00
2022-08-07T01:25:53.806Z,100.00
2022-08-07T01:28:02.440Z,100.00
2022-08-07T01:30:31.296Z,100.00
2022-08-07T01:32:59.060Z,100.00
2022-08-07T01:35:53.629Z,100.00
2022-08-07T01:38:24.972Z,100.00
2022-08-07T01:40:55.739Z,100.00
2022-08-07T01:43:26.051Z,100.00
2022-08-07T01:45:54.769Z,100.00
2022-08-07T01:48:29.833Z,100.00
2022-08-07T01:51:24.708Z,100.00
2022-08-07T01:54:08.541Z,100.00
2022-08-07T01:56:44.369Z,100.00
2022-08-07T01:59:22.667Z,100.00
2022-08-07T02:01:59.866Z,100.00
2022-08-07T02:04:52.642Z,100.00
2022-08-07T02:07:36.215Z,100.00
2022-08-07T02:10:18.365Z,100.00
2022-08-07T02:12:50.234Z,100.00
2022-08-07T02:15:23.248Z,100.00
2022-08-07T02:17:56.545Z,100.00
2022-08-07T02:20:24.880Z,100.00
2022-08-07T02:22:55.065Z,100.00
2022-08-07T02:26:10.705Z,100.00
2022-08-07T02:28:24.481Z,100.00
2022-08-07T02:30:55.937Z,100.00
2022-08-07T02:33:42.157Z,100.00
2022-08-07T02:36:27.133Z,100.00
2022-08-07T02:39:00.308Z,100.00
2022-08-07T02:41:33.596Z,100.00
2022-08-07T02:44:05.587Z,100.00
2022-08-07T02:46:36.778Z,100.00
2022-08-07T02:49:05.327Z,100.00
2022-08-07T02:51:42.847Z,99.97
2022-08-07T02:54:21.535Z,99.60
2022-08-07T02:56:55.837Z,99.23
2022-08-07T02:59:27.482Z,100.00
2022-08-07T03:01:56.443Z,97.51
2022-08-07T03:04:26.535Z,99.91
2022-08-07T03:06:54.917Z,100.00
2022-08-07T03:09:42.078Z,99.09
2022-08-07T03:12:21.998Z,100.00
2022-08-07T03:14:58.306Z,100.00
2022-08-07T03:17:31.050Z,100.00
2022-08-07T03:20:05.466Z,100.00
2022-08-07T03:22:34.712Z,100.00
2022-08-07T03:25:02.884Z,100.00
2022-08-07T03:27:41.984Z,100.00
2022-08-07T03:30:20.431Z,100.00
2022-08-07T03:32:58.892Z,100.00
2022-08-07T03:35:43.757Z,100.00
2022-08-07T03:38:21.426Z,100.00
2022-08-07T03:40:57.979Z,100.00
2022-08-07T03:43:32.466Z,100.00
2022-08-07T03:46:01.863Z,100.00
2022-08-07T03:48:32.843Z,100.00
2022-08-07T03:51:01.549Z,100.00
2022-08-07T03:53:50.019Z,100.00
2022-08-07T03:56:33.106Z,100.00
2022-08-07T03:59:09.283Z,100.00
2022-08-07T04:01:43.488Z,100.00
2022-08-07T04:04:17.429Z,100.00
2022-08-07T04:06:45.714Z,100.00
2022-08-07T04:09:15.473Z,100.00
2022-08-07T04:12:21.538Z,100.00
2022-08-07T04:14:37.101Z,100.00
2022-08-07T04:17:20.079Z,100.00
2022-08-07T04:19:52.170Z,99.12
2022-08-07T04:22:27.404Z,91.83
2022-08-07T04:24:57.970Z,87.92
2022-08-07T04:27:26.428Z,83.74
2022-08-07T04:30:01.687Z,84.29
2022-08-07T04:32:34.612Z,81.50
2022-08-07T04:35:05.624Z,77.98
2022-08-07T04:37:52.807Z,75.16
2022-08-07T04:40:30.178Z,75.19
2022-08-07T04:43:03.621Z,72.52
2022-08-07T04:45:57.917Z,65.12
2022-08-07T04:48:40.607Z,59.79
2022-08-07T04:51:20.263Z,55.67
2022-08-07T04:54:06.174Z,53.46
2022-08-07T04:58:09.704Z,50.98
2022-08-07T05:00:12.874Z,48.49
2022-08-07T05:02:31.384Z,48.66
2022-08-07T05:05:11.931Z,49.54
2022-08-07T05:07:57.782Z,49.45
2022-08-07T05:10:31.621Z,50.66
2022-08-07T05:13:01.895Z,52.45
2022-08-07T05:15:53.547Z,51.70
2022-08-07T05:18:26.538Z,51.71
2022-08-07T05:21:00.237Z,50.71
2022-08-07T05:23:35.576Z,48.20
2022-08-07T05:26:15.498Z,47.78
2022-08-07T05:28:49.966Z,46.82
2022-08-07T05:31:21.045Z,46.09
2022-08-07T05:34:04.383Z,45.96
2022-08-07T05:36:35.763Z,44.25
2022-08-07T05:40:04.875Z,44.03
2022-08-07T05:42:02.473Z,43.97
2022-08-07T05:44:34.658Z,43.90
2022-08-07T05:47:18.013Z,44.60
2022-08-07T05:49:49.725Z,45.10
2022-08-07T05:52:20.242Z,43.95
2022-08-07T05:54:55.360Z,44.97
2022-08-07T05:57:26.380Z,43.89
2022-08-07T05:59:59.214Z,45.62
2022-08-07T06:02:30.717Z,47.22
2022-08-07T06:05:04.098Z,47.63
2022-08-07T06:08:14.073Z,47.25
2022-08-07T06:10:20.320Z,44.96
2022-08-07T06:12:48.242Z,44.19
2022-08-07T06:15:19.661Z,46.85
2022-08-07T06:17:53.597Z,47.09
2022-08-07T06:20:25.522Z,47.18
2022-08-07T06:23:02.226Z,46.21
2022-08-07T06:25:53.961Z,46.15
2022-08-07T06:28:27.245Z,44.91
2022-08-07T06:30:55.396Z,46.72
2022-08-07T06:33:23.531Z,47.11
2022-08-07T06:36:13.299Z,47.58
2022-08-07T06:38:58.778Z,44.59
2022-08-07T06:42:02.122Z,44.54
2022-08-07T06:44:21.251Z,45.77
2022-08-07T06:46:53.816Z,45.05
2022-08-07T06:49:50.693Z,43.46
2022-08-07T06:52:31.615Z,40.27
2022-08-07T06:55:33.100Z,39.33
2022-08-07T06:57:57.104Z,40.17
2022-08-07T07:00:25.914Z,40.68
2022-08-07T07:02:58.075Z,39.61
2022-08-07T07:06:04.074Z,39.64
2022-08-07T07:08:18.926Z,40.42
2022-08-07T07:10:56.385Z,42.55
2022-08-07T07:13:56.672Z,41.39
2022-08-07T07:16:21.272Z,41.30
2022-08-07T07:18:53.071Z,40.39
2022-08-07T07:21:27.304Z,40.14
2022-08-07T07:24:16.747Z,40.92
2022-08-07T07:26:51.756Z,41.56
2022-08-07T07:29:39.390Z,40.58
2022-08-07T07:32:14.442Z,39.75
2022-08-07T07:34:46.293Z,38.69
2022-08-07T07:37:43.878Z,37.27
2022-08-07T07:40:14.677Z,37.46
2022-08-07T07:42:51.018Z,36.61
2022-08-07T07:46:37.035Z,35.32
2022-08-07T07:48:34.797Z,35.13
2022-08-07T07:51:07.818Z,34.67
2022-08-07T07:53:51.574Z,34.94
2022-08-07T07:56:30.183Z,35.62
2022-08-07T07:59:01.718Z,35.01
2022-08-07T08:02:03.732Z,34.17
2022-08-07T08:04:20.079Z,35.52
2022-08-07T08:06:54.407Z,35.81
2022-08-07T08:09:25.345Z,34.15
2022-08-07T08:12:04.902Z,33.25
2022-08-07T08:14:36.424Z,32.06
2022-08-07T08:17:55.952Z,32.10
2022-08-07T08:20:17.596Z,31.64
2022-08-07T08:23:05.112Z,32.38
2022-08-07T08:25:56.238Z,33.48
2022-08-07T08:28:38.503Z,33.40
2022-08-07T08:31:13.826Z,34.89
2022-08-07T08:33:49.837Z,34.25
2022-08-07T08:36:29.660Z,33.40
2022-08-07T08:39:00.063Z,35.68
2022-08-07T08:41:57.587Z,36.16
2022-08-07T08:44:31.721Z,33.76
2022-08-07T08:47:10.019Z,33.71
2022-08-07T08:50:05.224Z,33.89
2022-08-07T08:52:40.744Z,31.39
2022-08-07T08:55:54.784Z,31.34
2022-08-07T08:58:28.499Z,30.14
2022-08-07T09:01:15.352Z,30.39
2022-08-07T09:03:56.950Z,34.35
2022-08-07T09:06:36.783Z,33.54
2022-08-07T09:09:21.159Z,31.38
2022-08-07T09:12:08.949Z,30.73
2022-08-07T09:15:00.383Z,29.78
2022-08-07T09:17:59.012Z,30.28
2022-08-07T09:20:43.720Z,31.16
2022-08-07T09:24:33.476Z,32.93
2022-08-07T09:26:28.215Z,32.39
2022-08-07T09:30:01.135Z,30.95
2022-08-07T09:31:57.717Z,30.62
2022-08-07T09:34:34.095Z,32.92
2022-08-07T09:37:08.262Z,30.58
2022-08-07T09:39:55.365Z,29.67
2022-08-07T09:42:45.491Z,29.75
2022-08-07T09:47:51.946Z,28.67
2022-08-07T09:48:19.116Z,27.13
2022-08-07T09:50:59.831Z,27.68
2022-08-07T09:53:40.526Z,29.67
2022-08-07T09:56:41.778Z,29.85
2022-08-07T09:59:31.075Z,30.31
2022-08-07T10:02:33.214Z,30.41
2022-08-07T10:05:58.288Z,29.72
2022-08-07T10:08:38.488Z,31.60
2022-08-07T10:11:16.820Z,30.99
2022-08-07T10:14:11.309Z,29.02
2022-08-07T10:17:13.412Z,28.33
2022-08-07T10:19:56.408Z,28.60
2022-08-07T10:22:47.024Z,27.63
2022-08-07T10:25:42.071Z,28.52
2022-08-07T10:28:25.024Z,27.42
2022-08-07T10:31:06.096Z,27.04
2022-08-07T10:34:06.111Z,27.68
2022-08-07T10:36:58.306Z,28.42
2022-08-07T10:39:42.233Z,28.02
2022-08-07T10:42:37.173Z,26.80
2022-08-07T10:45:19.451Z,26.48
2022-08-07T10:48:15.503Z,27.94
2022-08-07T10:50:49.843Z,28.93
2022-08-07T10:53:26.398Z,30.22
2022-08-07T10:56:03.511Z,27.91
2022-08-07T10:58:59.331Z,29.07
2022-08-07T11:01:52.159Z,31.47
2022-08-07T11:04:41.754Z,31.60
2022-08-07T11:07:59.491Z,31.61
2022-08-07T11:10:19.952Z,30.51
2022-08-07T11:13:02.152Z,31.09
2022-08-07T11:15:35.210Z,30.13
2022-08-07T11:18:07.026Z,29.38
2022-08-07T11:20:46.997Z,27.72
2022-08-07T11:23:30.764Z,29.08
2022-08-07T11:26:13.294Z,29.54
2022-08-07T11:28:55.242Z,31.23
2022-08-07T11:31:33.355Z,30.50
2022-08-07T11:34:10.269Z,30.75
2022-08-07T11:36:44.611Z,31.10
2022-08-07T11:39:39.745Z,31.46
2022-08-07T11:42:19.223Z,30.96
2022-08-07T11:44:57.535Z,30.05
2022-08-07T11:47:56.225Z,30.67
2022-08-07T11:50:44.685Z,29.03
2022-08-07T11:53:38.030Z,30.50
2022-08-07T11:56:28.885Z,31.39
2022-08-07T12:00:07.794Z,31.32
2022-08-07T12:02:03.678Z,29.42
2022-08-07T12:05:02.943Z,29.90
2022-08-07T12:07:41.865Z,31.80
2022-08-07T12:10:16.696Z,31.76
2022-08-07T12:12:52.506Z,32.66
2022-08-07T12:15:46.714Z,31.16
2022-08-07T12:18:22.276Z,30.08
2022-08-07T12:21:14.942Z,29.47
2022-08-07T12:24:07.102Z,30.61
2022-08-07T12:26:46.696Z,31.18
2022-08-07T12:29:20.381Z,30.27
2022-08-07T12:32:12.754Z,30.96
2022-08-07T12:34:42.622Z,28.95
2022-08-07T12:37:28.562Z,28.39
2022-08-07T12:40:24.201Z,28.92
2022-08-07T12:43:00.578Z,29.69
2022-08-07T12:45:38.340Z,26.75
2022-08-07T12:48:27.474Z,27.43
2022-08-07T12:51:12.912Z,26.99
2022-08-07T12:54:24.012Z,29.00
2022-08-07T12:56:51.070Z,29.06
2022-08-07T12:59:32.973Z,27.09
2022-08-07T13:02:33.754Z,25.67
2022-08-07T13:05:14.881Z,26.25
2022-08-07T13:08:19.292Z,26.67
2022-08-07T13:11:00.892Z,27.70
2022-08-07T13:13:48.337Z,29.33
2022-08-07T13:16:28.026Z,26.55
2022-08-07T13:19:04.049Z,25.44
2022-08-07T13:21:37.617Z,24.09
2022-08-07T13:24:29.367Z,24.19
2022-08-07T13:27:08.228Z,28.43
2022-08-07T13:29:47.006Z,27.77
2022-08-07T13:32:31.376Z,27.09
2022-08-07T13:35:08.794Z,27.04
2022-08-07T13:37:55.544Z,27.36
2022-08-07T13:40:35.322Z,26.87
2022-08-07T13:43:13.850Z,26.61
2022-08-07T13:46:20.710Z,27.11
2022-08-07T13:48:38.688Z,27.60
2022-08-07T13:51:28.374Z,27.68
2022-08-07T13:54:06.144Z,27.63
2022-08-07T13:56:51.709Z,27.49
2022-08-07T13:59:31.115Z,25.43
2022-08-07T14:02:07.680Z,24.01
2022-08-07T14:04:50.167Z,26.22
2022-08-07T14:07:22.969Z,26.00
2022-08-07T14:10:01.229Z,24.45
2022-08-07T14:12:41.770Z,24.10
2022-08-07T14:15:19.242Z,25.28
2022-08-07T14:18:23.917Z,24.38
2022-08-07T14:20:48.906Z,24.38
2022-08-07T14:23:58.557Z,25.27
2022-08-07T14:26:30.129Z,26.55
2022-08-07T14:29:05.986Z,26.52
2022-08-07T14:31:42.339Z,27.61
2022-08-07T14:34:20.044Z,29.09
2022-08-07T14:36:56.212Z,28.70
2022-08-07T14:40:17.709Z,28.58
2022-08-07T14:42:20.777Z,28.38
2022-08-07T14:44:53.778Z,28.55
2022-08-07T14:47:33.877Z,25.94
2022-08-07T14:50:11.316Z,25.40
2022-08-07T14:52:40.369Z,26.00
2022-08-07T14:55:17.405Z,26.19
2022-08-07T14:57:57.838Z,27.16
2022-08-07T15:00:31.001Z,27.03
2022-08-07T15:03:18.976Z,26.93
2022-08-07T15:05:54.756Z,27.92
2022-08-07T15:08:47.462Z,27.37
2022-08-07T15:11:54.194Z,28.64
2022-08-07T15:14:15.572Z,29.22
2022-08-07T15:16:55.086Z,28.46
2022-08-07T15:22:23.063Z,27.17
2022-08-07T15:25:14.956Z,27.98
2022-08-07T15:28:32.825Z,28.78
2022-08-07T15:31:05.115Z,29.08
2022-08-07T15:33:33.619Z,30.15
2022-08-07T15:36:08.478Z,29.12
2022-08-07T15:38:51.637Z,30.02
2022-08-07T15:42:42.616Z,30.19
2022-08-07T15:44:20.450Z,30.52
2022-08-07T15:46:56.383Z,30.93
2022-08-07T15:50:05.553Z,30.52
2022-08-07T15:52:30.490Z,31.03
2022-08-07T15:55:02.581Z,31.32
2022-08-07T15:57:40.338Z,31.09
2022-08-07T16:00:31.620Z,30.71
2022-08-07T16:03:03.972Z,30.55
2022-08-07T16:05:32.329Z,32.09
2022-08-07T16:08:31.786Z,32.31
2022-08-07T16:11:00.297Z,33.13
2022-08-07T16:13:58.765Z,32.80
2022-08-07T16:16:49.396Z,33.57
2022-08-07T16:19:58.883Z,33.17
2022-08-07T16:22:55.301Z,32.78
2022-08-07T16:25:52.578Z,34.04
2022-08-07T16:30:08.245Z,33.51
2022-08-07T16:31:50.875Z,33.78
2022-08-07T16:34:28.114Z,33.69
2022-08-07T16:38:04.209Z,34.08
2022-08-07T16:40:28.315Z,34.32
2022-08-07T16:43:08.578Z,34.53
2022-08-07T16:46:33.640Z,34.44
2022-08-07T16:50:20.518Z,34.54
2022-08-07T16:52:51.908Z,34.56
2022-08-07T16:55:11.465Z,35.10
2022-08-07T16:58:02.575Z,35.04
2022-08-07T17:00:41.484Z,34.78
2022-08-07T17:03:58.503Z,34.97
2022-08-07T17:06:30.662Z,35.48
2022-08-07T17:09:13.847Z,35.31
2022-08-07T17:12:01.340Z,35.44
2022-08-07T17:14:39.090Z,35.36
2022-08-07T17:17:21.546Z,35.44
2022-08-07T17:20:02.908Z,35.67
2022-08-07T17:22:42.753Z,36.05
2022-08-07T17:25:17.029Z,36.49
2022-08-07T17:28:06.956Z,36.14
2022-08-07T17:30:58.136Z,36.28
2022-08-07T17:34:08.545Z,36.78
2022-08-07T17:36:26.065Z,36.46
2022-08-07T17:39:02.292Z,36.62
2022-08-07T17:42:04.732Z,36.63
2022-08-07T17:44:45.407Z,36.43
2022-08-07T17:47:38.145Z,37.07
2022-08-07T17:50:16.733Z,36.83
2022-08-07T17:52:53.260Z,36.39
2022-08-07T17:55:56.590Z,36.66
2022-08-07T17:58:30.588Z,37.29
2022-08-07T18:01:03.827Z,36.28
2022-08-07T18:04:08.043Z,36.27
2022-08-07T18:06:57.894Z,36.03
2022-08-07T18:10:04.630Z,36.64
2022-08-07T18:12:52.436Z,36.33
2022-08-07T18:15:23.818Z,37.32
2022-08-07T18:18:46.614Z,37.96
2022-08-07T18:21:27.485Z,38.68
2022-08-07T18:24:02.142Z,38.93
2022-08-07T18:27:17.475Z,39.00
2022-08-07T18:30:06.129Z,38.96
2022-08-07T18:33:15.603Z,38.78
2022-08-07T18:35:57.251Z,39.32
2022-08-07T18:38:59.367Z,39.18
2022-08-07T18:41:46.324Z,39.24
2022-08-07T18:44:30.344Z,38.63
2022-08-07T18:47:06.488Z,39.48
2022-08-07T18:50:30.516Z,39.86
2022-08-07T18:52:54.280Z,39.41
2022-08-07T18:55:43.365Z,39.89
2022-08-07T18:58:29.555Z,40.22
2022-08-07T19:02:19.153Z,40.35
2022-08-07T19:04:13.929Z,39.11
2022-08-07T19:06:51.407Z,39.60
2022-08-07T19:09:55.637Z,40.15
2022-08-07T19:12:17.898Z,40.11
2022-08-07T19:16:02.909Z,40.48
2022-08-07T19:18:07.461Z,40.08
2022-08-07T19:21:08.583Z,40.07
2022-08-07T19:23:58.355Z,39.91
2022-08-07T19:27:02.019Z,39.74
2022-08-07T19:30:56.747Z,39.87
2022-08-07T19:32:28.830Z,40.41
2022-08-07T19:35:06.746Z,39.75
2022-08-07T19:37:57.308Z,40.56
2022-08-07T19:40:31.040Z,40.37
2022-08-07T19:43:02.661Z,40.36
2022-08-07T19:46:06.204Z,40.79
2022-08-07T19:48:31.338Z,40.91
2022-08-07T19:51:20.522Z,41.82
2022-08-07T19:54:35.745Z,42.29
2022-08-07T19:57:51.849Z,43.10
2022-08-07T19:59:40.858Z,43.53
2022-08-07T20:02:19.311Z,44.19
2022-08-07T20:04:53.614Z,44.55
2022-08-07T20:07:46.662Z,44.88
2022-08-07T20:10:36.282Z,45.16
2022-08-07T20:13:22.827Z,45.55
2022-08-07T20:15:54.006Z,46.42
2022-08-07T20:18:32.634Z,46.64
2022-08-07T20:21:22.131Z,47.01
2022-08-07T20:23:54.968Z,47.42
2022-08-07T20:26:32.513Z,47.65
2022-08-07T20:29:47.093Z,48.99
2022-08-07T20:32:01.044Z,48.99
2022-08-07T20:34:49.666Z,49.13
2022-08-07T20:37:25.990Z,49.59
2022-08-07T20:40:02.652Z,51.32
2022-08-07T20:42:33.419Z,50.71
2022-08-07T20:45:01.983Z,50.61
2022-08-07T20:47:56.659Z,51.32
2022-08-07T20:50:23.386Z,50.35
2022-08-07T20:52:53.912Z,50.42
2022-08-07T20:55:23.677Z,50.55
2022-08-07T20:58:03.440Z,50.61
2022-08-07T21:00:44.178Z,51.26
2022-08-07T21:03:15.062Z,52.00
2022-08-07T21:05:54.871Z,52.27
2022-08-07T21:08:36.911Z,52.37
2022-08-07T21:11:10.487Z,53.19
2022-08-07T21:13:43.839Z,53.25
2022-08-07T21:16:31.380Z,53.78
2022-08-07T21:19:01.087Z,55.86
2022-08-07T21:21:33.237Z,55.61
2022-08-07T21:24:30.618Z,55.33
2022-08-07T21:27:06.841Z,54.52
2022-08-07T21:29:47.132Z,55.11
2022-08-07T21:32:46.733Z,54.11
2022-08-07T21:36:00.103Z,54.23
2022-08-07T21:38:13.317Z,54.51
2022-08-07T21:40:49.448Z,55.31
2022-08-07T21:43:22.906Z,56.42
2022-08-07T21:46:08.713Z,57.37
2022-08-07T21:48:55.843Z,57.18
2022-08-07T21:51:34.638Z,56.55
2022-08-07T21:54:25.569Z,57.42
2022-08-07T21:57:16.143Z,57.89
2022-08-07T22:00:04.837Z,56.50
2022-08-07T22:02:41.523Z,57.35
2022-08-07T22:05:22.204Z,58.31
2022-08-07T22:08:02.340Z,57.16
2022-08-07T22:10:35.617Z,57.50
2022-08-07T22:13:12.548Z,57.18
2022-08-07T22:16:45.608Z,56.67
2022-08-07T22:18:39.432Z,58.75
2022-08-07T22:21:15.712Z,58.84
2022-08-07T22:23:53.725Z,59.26
2022-08-07T22:26:24.993Z,56.13
2022-08-07T22:29:04.683Z,55.73
2022-08-07T22:32:00.305Z,54.93
2022-08-07T22:34:52.965Z,53.92
2022-08-07T22:38:04.225Z,55.55
2022-08-07T22:40:25.858Z,56.89
2022-08-07T22:43:02.660Z,57.05
2022-08-07T22:46:21.847Z,57.75
2022-08-07T22:48:55.630Z,59.05
2022-08-07T22:51:49.369Z,58.29
2022-08-07T22:54:48.921Z,58.07
2022-08-07T22:57:41.135Z,61.27
2022-08-07T23:00:14.159Z,59.55
2022-08-07T23:02:55.355Z,61.37
2022-08-07T23:06:08.221Z,60.37
2022-08-07T23:08:46.764Z,58.90
2022-08-07T23:11:35.013Z,57.54
2022-08-07T23:14:25.160Z,56.99
2022-08-07T23:17:26.792Z,57.79
2022-08-07T23:20:51.157Z,60.88
2022-08-07T23:24:06.297Z,66.91
2022-08-07T23:26:26.058Z,64.91
2022-08-07T23:29:43.168Z,65.05
2022-08-07T23:34:21.412Z,63.45
2022-08-07T23:35:39.948Z,63.54
2022-08-07T23:38:19.423Z,63.28
2022-08-07T23:41:22.466Z,63.83
2022-08-07T23:44:17.652Z,64.85
2022-08-07T23:47:13.168Z,65.64
2022-08-07T23:50:27.768Z,65.45
2022-08-07T23:53:17.401Z,66.35
2022-08-07T23:55:56.320Z,66.87
2022-08-07T23:58:49.858Z,67.15
